Time,TemperatureF,DewpointF,PressureIn,WindDirection,WindDirectionDegrees,WindSpeedMPH,WindSpeedGustMPH,Humidity,HourlyPrecipIn,Conditions,Clouds,dailyrainin,SoftwareType,DateUTC
2013-08-24 00:00:00,65.3,63.5,30.06,NW,310,0.0,0.0,94,0.00,,---,0.06,VWS V14.00,2013-08-24 04:00:00,
2013-08-24 00:01:00,65.4,63.6,30.06,NW,310,0.0,0.0,94,0.00,,---,0.06,VWS V14.00,2013-08-24 04:01:00,
2013-08-24 00:06:00,65.4,63.9,30.06,NW,310,0.0,0.0,95,0.00,,---,0.06,VWS V14.00,2013-08-24 04:06:00,
2013-08-24 00:11:00,65.4,63.9,30.06,NW,310,0.0,0.0,95,0.00,,---,0.00,VWS V14.00,2013-08-24 04:11:00,
2013-08-24 00:16:00,65.4,63.9,30.06,NW,310,0.0,0.0,95,0.00,,---,0.00,VWS V14.00,2013-08-24 04:16:00,
2013-08-24 00:21:00,65.4,63.9,30.06,NW,310,0.0,0.0,95,0.00,,---,0.00,VWS V14.00,2013-08-24 04:21:00,
2013-08-24 00:26:00,65.4,63.9,30.07,NW,310,0.0,0.0,95,0.00,,---,0.00,VWS V14.00,2013-08-24 04:26:00,
2013-08-24 00:31:00,65.5,64.0,30.06,NW,310,0.0,0.0,95,0.00,,---,0.00,VWS V14.00,2013-08-24 04:31:00,
2013-08-24 00:36:00,65.5,64.3,30.06,NW,310,0.0,1.0,96,0.00,,---,0.00,VWS V14.00,2013-08-24 04:36:00,
2013-08-24 00:41:00,65.5,64.3,30.06,NW,310,0.0,0.0,96,0.00,,---,0.00,VWS V14.00,2013-08-24 04:41:00,
2013-08-24 00:46:00,65.4,64.2,30.06,NW,310,0.0,0.0,96,0.00,,---,0.00,VWS V14.00,2013-08-24 04:46:00,
2013-08-24 00:51:00,65.4,64.2,30.06,NW,310,0.0,0.0,96,0.00,,---,0.00,VWS V14.00,2013-08-24 04:51:00,
2013-08-24 00:56:00,65.2,64.0,30.06,NW,310,0.0,0.0,96,0.00,,---,0.00,VWS V14.00,2013-08-24 04:56:00,
2013-08-24 01:01:00,65.1,63.9,30.07,NW,310,0.0,0.0,96,0.00,,---,0.00,VWS V14.00,2013-08-24 05:01:00,
2013-08-24 01:06:00,65.0,63.8,30.06,NW,310,0.0,0.0,96,0.00,,---,0.00,VWS V14.00,2013-08-24 05:06:00,
2013-08-24 01:11:00,64.9,63.7,30.06,NW,310,0.0,0.0,96,0.00,,---,0.00,VWS V14.00,2013-08-24 05:11:00,
2013-08-24 01:16:00,64.8,63.6,30.05,NW,310,0.0,0.0,96,0.00,,---,0.00,VWS V14.00,2013-08-24 05:16:00,
2013-08-24 01:21:00,64.7,63.5,30.05,NW,310,0.0,0.0,96,0.00,,---,0.00,VWS V14.00,2013-08-24 05:21:00,
2013-08-24 01:26:00,64.7,63.5,30.05,NW,310,0.0,0.0,96,0.00,,---,0.00,VWS V14.00,2013-08-24 05:26:00,
2013-08-24 01:31:00,64.6,63.4,30.05,NW,310,0.0,0.0,96,0.00,,---,0.00,VWS V14.00,2013-08-24 05:31:00,
2013-08-24 01:36:00,64.5,63.3,30.05,NW,310,0.0,0.0,96,0.00,,---,0.00,VWS V14.00,2013-08-24 05:36:00,
2013-08-24 01:41:00,64.5,63.6,30.05,NW,310,0.0,0.0,97,0.00,,---,0.00,VWS V14.00,2013-08-24 05:41:00,
2013-08-24 01:46:00,64.5,63.6,30.05,NW,310,0.0,0.0,97,0.00,,---,0.00,VWS V14.00,2013-08-24 05:46:00,
2013-08-24 01:51:00,64.4,63.5,30.05,NW,310,0.0,0.0,97,0.00,,---,0.00,VWS V14.00,2013-08-24 05:51:00,
2013-08-24 01:56:00,64.3,63.4,30.05,NW,310,0.0,0.0,97,0.00,,---,0.00,VWS V14.00,2013-08-24 05:56:00,
2013-08-24 02:01:00,64.3,63.4,30.05,NW,310,0.0,0.0,97,0.00,,---,0.00,VWS V14.00,2013-08-24 06:01:00,
2013-08-24 02:06:00,64.1,63.2,30.05,NW,310,0.0,0.0,97,0.00,,---,0.00,VWS V14.00,2013-08-24 06:06:00,
2013-08-24 02:11:00,64.1,63.2,30.05,NW,310,0.0,0.0,97,0.00,,---,0.00,VWS V14.00,2013-08-24 06:11:00,
2013-08-24 02:16:00,64.0,63.1,30.05,NW,310,0.0,0.0,97,0.00,,---,0.00,VWS V14.00,2013-08-24 06:16:00,
2013-08-24 02:21:00,63.9,63.0,30.05,NW,310,0.0,0.0,97,0.00,,---,0.00,VWS V14.00,2013-08-24 06:21:00,
2013-08-24 02:26:00,63.9,63.0,30.05,NW,310,0.0,0.0,97,0.00,,---,0.00,VWS V14.00,2013-08-24 06:26:00,
2013-08-24 02:31:00,63.8,62.9,30.05,NW,310,0.0,0.0,97,0.00,,---,0.00,VWS V14.00,2013-08-24 06:31:00,
2013-08-24 02:36:00,63.8,62.9,30.05,NW,310,0.0,0.0,97,0.00,,---,0.00,VWS V14.00,2013-08-24 06:36:00,
2013-08-24 02:41:00,63.7,62.8,30.05,NW,310,0.0,0.0,97,0.00,,---,0.00,VWS V14.00,2013-08-24 06:41:00,
2013-08-24 02:46:00,63.7,62.8,30.05,NW,310,0.0,0.0,97,0.00,,---,0.00,VWS V14.00,2013-08-24 06:46:00,
2013-08-24 02:51:00,63.6,62.7,30.05,NW,310,0.0,0.0,97,0.00,,---,0.00,VWS V14.00,2013-08-24 06:51:00,
2013-08-24 02:56:00,63.5,62.6,30.05,NW,310,0.0,0.0,97,0.00,,---,0.00,VWS V14.00,2013-08-24 06:56:00,
2013-08-24 03:01:00,63.4,62.5,30.05,NW,310,0.0,0.0,97,0.00,,---,0.00,VWS V14.00,2013-08-24 07:01:00,
2013-08-24 03:06:00,63.2,62.3,30.05,NW,310,0.0,0.0,97,0.00,,---,0.00,VWS V14.00,2013-08-24 07:06:00,
2013-08-24 03:11:00,63.2,62.3,30.05,NW,310,0.0,0.0,97,0.00,,---,0.00,VWS V14.00,2013-08-24 07:11:00,
2013-08-24 03:16:00,63.1,62.2,30.05,NW,310,0.0,0.0,97,0.00,,---,0.00,VWS V14.00,2013-08-24 07:16:00,
2013-08-24 03:21:00,63.0,62.1,30.05,NW,310,0.0,0.0,97,0.00,,---,0.00,VWS V14.00,2013-08-24 07:21:00,
2013-08-24 03:26:00,62.9,62.0,30.05,NW,311,0.0,0.0,97,0.00,,---,0.00,VWS V14.00,2013-08-24 07:26:00,
2013-08-24 03:31:00,62.9,62.3,30.05,NW,311,0.0,0.0,98,0.00,,---,0.00,VWS V14.00,2013-08-24 07:31:00,
2013-08-24 03:36:00,62.9,62.3,30.05,NW,310,0.0,0.0,98,0.00,,---,0.00,VWS V14.00,2013-08-24 07:36:00,
2013-08-24 03:41:00,62.9,62.3,30.06,NW,314,0.0,0.0,98,0.00,,---,0.00,VWS V14.00,2013-08-24 07:41:00,
2013-08-24 03:46:00,63.0,62.4,30.06,NW,314,0.0,0.0,98,0.00,,---,0.00,VWS V14.00,2013-08-24 07:46:00,
2013-08-24 03:51:00,63.1,62.5,30.06,NW,314,0.0,0.0,98,0.00,,---,0.00,VWS V14.00,2013-08-24 07:51:00,
2013-08-24 03:56:00,63.1,62.5,30.06,NW,314,0.0,0.0,98,0.00,,---,0.00,VWS V14.00,2013-08-24 07:56:00,
2013-08-24 04:01:00,63.2,62.6,30.06,NW,314,0.0,0.0,98,0.00,,---,0.00,VWS V14.00,2013-08-24 08:01:00,
2013-08-24 04:06:00,63.2,62.6,30.06,NW,314,0.0,0.0,98,0.00,,---,0.00,VWS V14.00,2013-08-24 08:06:00,
2013-08-24 04:11:00,63.2,62.6,30.07,NW,314,0.0,0.0,98,0.00,,---,0.00,VWS V14.00,2013-08-24 08:11:00,
2013-08-24 04:16:00,63.2,62.6,30.07,NW,314,0.0,0.0,98,0.00,,---,0.00,VWS V14.00,2013-08-24 08:16:00,
2013-08-24 04:21:00,63.2,62.6,30.07,NW,314,0.0,0.0,98,0.00,,---,0.00,VWS V14.00,2013-08-24 08:21:00,
2013-08-24 04:26:00,63.2,62.6,30.07,NW,314,0.0,0.0,98,0.00,,---,0.00,VWS V14.00,2013-08-24 08:26:00,
2013-08-24 04:31:00,63.2,62.6,30.07,NW,314,0.0,0.0,98,0.00,,---,0.00,VWS V14.00,2013-08-24 08:31:00,
2013-08-24 04:36:00,63.2,62.6,30.07,NW,314,0.0,0.0,98,0.00,,---,0.00,VWS V14.00,2013-08-24 08:36:00,
2013-08-24 04:41:00,63.2,62.6,30.07,NW,314,0.0,0.0,98,0.00,,---,0.00,VWS V14.00,2013-08-24 08:41:00,
2013-08-24 04:46:00,63.1,62.5,30.07,NW,314,0.0,0.0,98,0.00,,---,0.00,VWS V14.00,2013-08-24 08:46:00,
2013-08-24 04:51:00,63.1,62.5,30.07,NW,314,0.0,0.0,98,0.00,,---,0.00,VWS V14.00,2013-08-24 08:51:00,
2013-08-24 04:56:00,63.0,62.4,30.08,NW,314,0.0,0.0,98,0.00,,---,0.00,VWS V14.00,2013-08-24 08:56:00,
2013-08-24 05:01:00,63.0,62.4,30.08,NW,314,0.0,1.0,98,0.00,,---,0.00,VWS V14.00,2013-08-24 09:01:00,
2013-08-24 05:06:00,63.0,62.4,30.08,NW,314,0.0,1.0,98,0.00,,---,0.00,VWS V14.00,2013-08-24 09:06:00,
2013-08-24 05:11:00,63.0,62.4,30.10,NW,314,0.0,0.0,98,0.00,,---,0.00,VWS V14.00,2013-08-24 09:11:00,
2013-08-24 05:16:00,63.0,62.4,30.10,NW,314,0.0,0.0,98,0.00,,---,0.00,VWS V14.00,2013-08-24 09:16:00,
2013-08-24 05:21:00,63.0,62.7,30.10,NW,314,0.0,0.0,99,0.00,,---,0.00,VWS V14.00,2013-08-24 09:21:00,
2013-08-24 05:26:00,63.0,62.7,30.10,NW,311,0.0,0.0,99,0.00,,---,0.00,VWS V14.00,2013-08-24 09:26:00,
2013-08-24 05:31:00,63.0,62.7,30.11,NW,311,0.0,0.0,99,0.00,,---,0.00,VWS V14.00,2013-08-24 09:31:00,
2013-08-24 05:36:00,63.0,62.7,30.11,NW,311,0.0,0.0,99,0.00,,---,0.00,VWS V14.00,2013-08-24 09:36:00,
2013-08-24 05:41:00,63.0,62.7,30.11,NW,313,0.0,0.0,99,0.00,,---,0.00,VWS V14.00,2013-08-24 09:41:00,
2013-08-24 05:46:00,63.0,62.7,30.11,NW,312,0.0,0.0,99,0.01,,---,0.01,VWS V14.00,2013-08-24 09:46:00,
2013-08-24 05:51:00,63.0,62.7,30.11,NW,311,0.0,0.0,99,0.01,,---,0.01,VWS V14.00,2013-08-24 09:51:00,
2013-08-24 05:56:00,62.9,62.6,30.11,NW,312,0.0,0.0,99,0.01,,---,0.01,VWS V14.00,2013-08-24 09:56:00,
2013-08-24 06:01:00,62.9,62.6,30.11,NW,313,0.0,0.0,99,0.01,,---,0.01,VWS V14.00,2013-08-24 10:01:00,
2013-08-24 06:06:00,62.9,62.6,30.11,NW,312,0.0,0.0,99,0.01,,---,0.01,VWS V14.00,2013-08-24 10:06:00,
2013-08-24 06:11:00,62.9,62.6,30.13,NW,312,0.0,0.0,99,0.01,,---,0.01,VWS V14.00,2013-08-24 10:11:00,
2013-08-24 06:16:00,62.9,62.6,30.13,NW,313,0.0,0.0,99,0.01,,---,0.01,VWS V14.00,2013-08-24 10:16:00,
2013-08-24 06:21:00,62.8,62.5,30.14,NW,312,0.0,0.0,99,0.01,,---,0.01,VWS V14.00,2013-08-24 10:21:00,
2013-08-24 06:26:00,62.8,62.5,30.14,NW,311,0.0,0.0,99,0.01,,---,0.01,VWS V14.00,2013-08-24 10:26:00,
2013-08-24 06:31:00,62.8,62.5,30.14,NW,313,0.0,0.0,99,0.01,,---,0.01,VWS V14.00,2013-08-24 10:31:00,
2013-08-24 06:36:00,62.7,62.4,30.14,NW,312,0.0,0.0,99,0.01,,---,0.01,VWS V14.00,2013-08-24 10:36:00,
2013-08-24 06:41:00,62.8,62.5,30.14,NW,312,0.0,0.0,99,0.01,,---,0.01,VWS V14.00,2013-08-24 10:41:00,
2013-08-24 06:46:00,62.7,62.4,30.15,NW,312,0.0,0.0,99,0.01,,---,0.01,VWS V14.00,2013-08-24 10:46:00,
2013-08-24 06:51:00,62.7,62.4,30.15,SE,136,0.0,2.0,99,0.01,,---,0.01,VWS V14.00,2013-08-24 10:51:00,
2013-08-24 06:56:00,62.7,62.4,30.15,SE,136,0.0,2.0,99,0.01,,---,0.01,VWS V14.00,2013-08-24 10:56:00,
2013-08-24 07:01:00,62.6,62.3,30.15,SE,136,0.0,2.0,99,0.01,,---,0.01,VWS V14.00,2013-08-24 11:01:00,
2013-08-24 07:06:00,62.6,62.3,30.15,SE,136,0.0,2.0,99,0.01,,---,0.01,VWS V14.00,2013-08-24 11:06:00,
2013-08-24 07:11:00,62.6,62.3,30.17,SE,136,0.0,0.0,99,0.00,,---,0.01,VWS V14.00,2013-08-24 11:11:00,
2013-08-24 07:16:00,62.6,62.3,30.17,SE,136,0.0,0.0,99,0.00,,---,0.01,VWS V14.00,2013-08-24 11:16:00,
2013-08-24 07:21:00,62.6,62.3,30.17,SE,136,0.0,0.0,99,0.00,,---,0.01,VWS V14.00,2013-08-24 11:21:00,
2013-08-24 07:26:00,62.6,62.3,30.17,SE,136,0.0,0.0,99,0.00,,---,0.01,VWS V14.00,2013-08-24 11:26:00,
2013-08-24 07:31:00,62.6,62.3,30.17,SE,136,0.0,0.0,99,0.00,,---,0.01,VWS V14.00,2013-08-24 11:31:00,
2013-08-24 07:36:00,62.6,62.3,30.17,SE,136,0.0,0.0,99,0.00,,---,0.01,VWS V14.00,2013-08-24 11:36:00,
2013-08-24 07:41:00,62.6,62.3,30.17,SE,136,0.0,0.0,99,0.00,,---,0.01,VWS V14.00,2013-08-24 11:41:00,
2013-08-24 07:46:00,62.5,62.2,30.17,SE,136,0.0,0.0,99,0.00,,---,0.01,VWS V14.00,2013-08-24 11:46:00,
2013-08-24 07:51:00,62.6,62.3,30.18,SE,136,0.0,0.0,99,0.00,,---,0.01,VWS V14.00,2013-08-24 11:51:00,
2013-08-24 07:56:00,62.6,62.3,30.18,SE,136,0.0,0.0,99,0.00,,---,0.01,VWS V14.00,2013-08-24 11:56:00,
2013-08-24 08:01:00,62.6,62.3,30.18,SE,136,0.0,0.0,99,0.00,,---,0.01,VWS V14.00,2013-08-24 12:01:00,
2013-08-24 08:06:00,62.6,62.3,30.18,SE,136,0.0,0.0,99,0.00,,---,0.01,VWS V14.00,2013-08-24 12:06:00,
2013-08-24 08:11:00,62.6,62.3,30.18,SE,136,0.0,0.0,99,0.00,,---,0.01,VWS V14.00,2013-08-24 12:11:00,
2013-08-24 08:16:00,62.6,62.3,30.18,SE,136,0.0,0.0,99,0.00,,---,0.01,VWS V14.00,2013-08-24 12:16:00,
2013-08-24 08:21:00,62.6,62.3,30.18,SE,136,0.0,0.0,99,0.00,,---,0.01,VWS V14.00,2013-08-24 12:21:00,
2013-08-24 08:26:00,62.7,62.4,30.19,SE,136,0.0,0.0,99,0.00,,---,0.01,VWS V14.00,2013-08-24 12:26:00,
2013-08-24 08:31:00,62.9,62.6,30.19,SE,136,0.0,0.0,99,0.00,,---,0.01,VWS V14.00,2013-08-24 12:31:00,
2013-08-24 08:36:00,62.9,62.6,30.19,SE,136,0.0,1.0,99,0.00,,---,0.01,VWS V14.00,2013-08-24 12:36:00,
2013-08-24 08:41:00,62.8,62.5,30.19,SE,136,1.0,1.0,99,0.00,,---,0.01,VWS V14.00,2013-08-24 12:41:00,
2013-08-24 08:46:00,62.7,62.4,30.19,SE,136,0.0,1.0,99,0.00,,---,0.01,VWS V14.00,2013-08-24 12:46:00,
2013-08-24 08:51:00,62.7,62.4,30.20,SE,136,0.0,1.0,99,0.00,,---,0.01,VWS V14.00,2013-08-24 12:51:00,
2013-08-24 08:56:00,62.7,62.4,30.20,SE,136,0.0,1.0,99,0.00,,---,0.01,VWS V14.00,2013-08-24 12:56:00,
2013-08-24 09:01:00,62.8,62.5,30.20,SE,136,0.0,1.0,99,0.00,,---,0.01,VWS V14.00,2013-08-24 13:01:00,
2013-08-24 09:06:00,62.9,62.6,30.20,SE,136,0.0,1.0,99,0.00,,---,0.01,VWS V14.00,2013-08-24 13:06:00,
2013-08-24 09:11:00,62.8,62.5,30.20,SE,136,0.0,0.0,99,0.00,,---,0.01,VWS V14.00,2013-08-24 13:11:00,
2013-08-24 09:16:00,62.8,62.5,30.20,SE,136,0.0,0.0,99,0.00,,---,0.01,VWS V14.00,2013-08-24 13:16:00,
2013-08-24 09:21:00,62.9,62.6,30.20,SE,136,0.0,0.0,99,0.00,,---,0.01,VWS V14.00,2013-08-24 13:21:00,
2013-08-24 09:26:00,62.9,62.6,30.20,SE,136,0.0,1.0,99,0.00,,---,0.01,VWS V14.00,2013-08-24 13:26:00,
2013-08-24 09:31:00,62.9,62.6,30.20,SE,127,0.0,3.0,99,0.00,,---,0.01,VWS V14.00,2013-08-24 13:31:00,
2013-08-24 09:36:00,63.1,62.8,30.20,SE,127,0.0,3.0,99,0.00,,---,0.01,VWS V14.00,2013-08-24 13:36:00,
2013-08-24 09:41:00,63.1,62.8,30.20,SE,127,0.0,1.0,99,0.00,,---,0.01,VWS V14.00,2013-08-24 13:41:00,
2013-08-24 09:46:00,63.1,62.8,30.20,SE,126,0.0,1.0,99,0.00,,---,0.01,VWS V14.00,2013-08-24 13:46:00,
2013-08-24 09:51:00,63.1,62.8,30.20,SE,126,0.0,1.0,99,0.00,,---,0.01,VWS V14.00,2013-08-24 13:51:00,
2013-08-24 09:56:00,63.2,62.9,30.20,SE,126,0.0,1.0,99,0.00,,---,0.01,VWS V14.00,2013-08-24 13:56:00,
2013-08-24 10:01:00,63.2,62.9,30.20,SE,126,0.0,1.0,99,0.00,,---,0.01,VWS V14.00,2013-08-24 14:01:00,
2013-08-24 10:06:00,63.5,63.2,30.20,SE,127,0.0,1.0,99,0.00,,---,0.01,VWS V14.00,2013-08-24 14:06:00,
2013-08-24 10:11:00,63.8,63.5,30.20,SE,127,0.0,0.0,99,0.00,,---,0.01,VWS V14.00,2013-08-24 14:11:00,
2013-08-24 10:16:00,63.9,63.6,30.20,SE,127,0.0,0.0,99,0.00,,---,0.01,VWS V14.00,2013-08-24 14:16:00,
2013-08-24 10:21:00,64.0,63.7,30.20,SE,126,0.0,1.0,99,0.00,,---,0.01,VWS V14.00,2013-08-24 14:21:00,
2013-08-24 10:26:00,64.1,63.8,30.21,SE,126,0.0,1.0,99,0.00,,---,0.01,VWS V14.00,2013-08-24 14:26:00,
2013-08-24 10:31:00,64.5,64.2,30.21,SE,127,0.0,1.0,99,0.00,,---,0.01,VWS V14.00,2013-08-24 14:31:00,
2013-08-24 10:36:00,64.8,64.5,30.20,SE,127,0.0,1.0,99,0.00,,---,0.01,VWS V14.00,2013-08-24 14:36:00,
2013-08-24 10:41:00,65.2,64.9,30.21,SSE,153,0.0,1.0,99,0.00,,---,0.01,VWS V14.00,2013-08-24 14:41:00,
2013-08-24 10:46:00,65.7,65.4,30.20,SSE,153,0.0,2.0,99,0.00,,---,0.01,VWS V14.00,2013-08-24 14:46:00,
2013-08-24 10:51:00,66.2,65.6,30.20,SSE,154,0.0,2.0,98,0.00,,---,0.01,VWS V14.00,2013-08-24 14:51:00,
2013-08-24 10:56:00,66.6,66.0,30.20,SE,126,1.0,2.0,98,0.00,,---,0.01,VWS V14.00,2013-08-24 14:56:00,
2013-08-24 11:01:00,67.4,66.5,30.20,SE,134,0.0,3.0,97,0.00,,---,0.01,VWS V14.00,2013-08-24 15:01:00,
2013-08-24 11:06:00,68.1,66.9,30.19,South,187,1.0,3.0,96,0.00,,---,0.01,VWS V14.00,2013-08-24 15:06:00,
2013-08-24 11:11:00,69.0,67.2,30.20,SSE,168,2.0,2.0,94,0.00,,---,0.01,VWS V14.00,2013-08-24 15:11:00,
2013-08-24 11:16:00,69.4,66.7,30.20,South,169,0.0,2.0,91,0.00,,---,0.01,VWS V14.00,2013-08-24 15:16:00,
2013-08-24 11:21:00,70.1,67.4,30.19,SSE,168,0.0,2.0,91,0.00,,---,0.01,VWS V14.00,2013-08-24 15:21:00,
2013-08-24 11:26:00,70.7,67.6,30.19,SSE,167,0.0,2.0,90,0.00,,---,0.01,VWS V14.00,2013-08-24 15:26:00,
2013-08-24 11:31:00,71.3,68.2,30.19,SSE,167,2.0,4.0,90,0.00,,---,0.01,VWS V14.00,2013-08-24 15:31:00,
2013-08-24 11:36:00,71.6,67.5,30.19,SSE,167,0.0,4.0,87,0.00,,---,0.01,VWS V14.00,2013-08-24 15:36:00,
2013-08-24 11:41:00,72.4,68.3,30.19,SSE,167,0.0,1.0,87,0.00,,---,0.01,VWS V14.00,2013-08-24 15:41:00,
2013-08-24 11:46:00,73.0,67.9,30.18,West,279,0.0,4.0,84,0.00,,---,0.01,VWS V14.00,2013-08-24 15:46:00,
2013-08-24 11:51:00,73.7,68.9,30.18,SSE,160,0.0,4.0,85,0.00,,---,0.01,VWS V14.00,2013-08-24 15:51:00,
2013-08-24 11:56:00,74.3,68.4,30.18,SE,124,0.0,4.0,82,0.00,,---,0.01,VWS V14.00,2013-08-24 15:56:00,
2013-08-24 12:01:00,74.9,69.0,30.17,ESE,115,0.0,4.0,82,0.00,,---,0.01,VWS V14.00,2013-08-24 16:01:00,
2013-08-24 12:06:00,75.5,70.0,30.17,NE,37,3.0,4.0,83,0.00,,---,0.01,VWS V14.00,2013-08-24 16:06:00,
2013-08-24 12:11:00,76.1,69.8,30.17,SE,129,0.0,2.0,81,0.00,,---,0.01,VWS V14.00,2013-08-24 16:11:00,
2013-08-24 12:16:00,76.9,69.9,30.17,ESE,116,0.0,2.0,79,0.00,,---,0.01,VWS V14.00,2013-08-24 16:16:00,
2013-08-24 12:21:00,77.2,69.8,30.16,ESE,118,0.0,3.0,78,0.00,,---,0.01,VWS V14.00,2013-08-24 16:21:00,
2013-08-24 12:26:00,77.5,69.7,30.16,South,190,0.0,3.0,77,0.00,,---,0.01,VWS V14.00,2013-08-24 16:26:00,
2013-08-24 12:31:00,77.9,70.1,30.16,South,190,0.0,3.0,77,0.00,,---,0.01,VWS V14.00,2013-08-24 16:31:00,
2013-08-24 12:36:00,78.2,70.0,30.16,South,178,0.0,4.0,76,0.00,,---,0.01,VWS V14.00,2013-08-24 16:36:00,
2013-08-24 12:41:00,78.6,69.6,30.15,SSE,167,0.0,1.0,74,0.00,,---,0.01,VWS V14.00,2013-08-24 16:41:00,
2013-08-24 12:46:00,78.9,70.3,30.15,East,98,0.0,3.0,75,0.00,,---,0.01,VWS V14.00,2013-08-24 16:46:00,
2013-08-24 12:51:00,79.3,69.1,30.15,East,90,0.0,3.0,71,0.00,,---,0.01,VWS V14.00,2013-08-24 16:51:00,
2013-08-24 12:56:00,79.5,68.9,30.15,South,174,4.0,4.0,70,0.00,,---,0.01,VWS V14.00,2013-08-24 16:56:00,
2013-08-24 13:01:00,79.6,69.8,30.15,WNW,283,0.0,4.0,72,0.00,,---,0.01,VWS V14.00,2013-08-24 17:01:00,
2013-08-24 13:06:00,80.0,70.2,30.15,WNW,298,4.0,4.0,72,0.00,,---,0.01,VWS V14.00,2013-08-24 17:06:00,
2013-08-24 13:11:00,80.2,70.4,30.15,SSW,196,0.0,2.0,72,0.00,,---,0.01,VWS V14.00,2013-08-24 17:11:00,
2013-08-24 13:16:00,80.6,72.3,30.14,SSW,196,0.0,2.0,76,0.00,,---,0.01,VWS V14.00,2013-08-24 17:16:00,
2013-08-24 13:21:00,81.1,72.8,30.14,South,177,3.0,3.0,76,0.00,,---,0.01,VWS V14.00,2013-08-24 17:21:00,
2013-08-24 13:26:00,81.0,70.3,30.14,SE,138,0.0,5.0,70,0.00,,---,0.01,VWS V14.00,2013-08-24 17:26:00,
2013-08-24 13:31:00,81.0,69.0,30.14,South,180,1.0,5.0,67,0.00,,---,0.01,VWS V14.00,2013-08-24 17:31:00,
2013-08-24 13:36:00,81.0,68.6,30.14,SE,141,0.0,5.0,66,0.00,,---,0.01,VWS V14.00,2013-08-24 17:36:00,
2013-08-24 13:41:00,81.3,70.6,30.14,SE,146,0.0,1.0,70,0.00,,---,0.01,VWS V14.00,2013-08-24 17:41:00,
2013-08-24 13:46:00,81.6,70.0,30.13,South,185,4.0,6.0,68,0.00,,---,0.01,VWS V14.00,2013-08-24 17:46:00,
2013-08-24 13:51:00,81.9,70.3,30.13,ESE,113,0.0,6.0,68,0.00,,---,0.01,VWS V14.00,2013-08-24 17:51:00,
2013-08-24 13:56:00,82.5,73.0,30.13,ESE,113,1.0,6.0,73,0.00,,---,0.01,VWS V14.00,2013-08-24 17:56:00,
2013-08-24 14:01:00,82.8,70.3,30.13,SE,128,0.0,6.0,66,0.00,,---,0.01,VWS V14.00,2013-08-24 18:01:00,
2013-08-24 14:06:00,83.1,70.6,30.13,ESE,105,0.0,6.0,66,0.00,,---,0.01,VWS V14.00,2013-08-24 18:06:00,
2013-08-24 14:11:00,83.4,68.1,30.13,ESE,105,0.0,1.0,60,0.00,,---,0.01,VWS V14.00,2013-08-24 18:11:00,
2013-08-24 14:16:00,83.6,68.7,30.13,SE,142,0.0,1.0,61,0.00,,---,0.01,VWS V14.00,2013-08-24 18:16:00,
2013-08-24 14:21:00,83.6,69.2,30.13,NNW,330,0.0,2.0,62,0.00,,---,0.01,VWS V14.00,2013-08-24 18:21:00,
2013-08-24 14:26:00,83.8,68.9,30.13,ESE,119,0.0,3.0,61,0.00,,---,0.01,VWS V14.00,2013-08-24 18:26:00,
2013-08-24 14:31:00,83.7,69.3,30.13,ESE,120,0.0,3.0,62,0.00,,---,0.01,VWS V14.00,2013-08-24 18:31:00,
2013-08-24 14:36:00,83.7,69.8,30.13,SSE,147,0.0,3.0,63,0.00,,---,0.01,VWS V14.00,2013-08-24 18:36:00,
2013-08-24 14:41:00,84.0,71.9,30.13,SE,143,0.0,1.0,67,0.00,,---,0.01,VWS V14.00,2013-08-24 18:41:00,
2013-08-24 14:46:00,83.6,67.3,30.14,SE,142,0.0,1.0,58,0.00,,---,0.01,VWS V14.00,2013-08-24 18:46:00,
2013-08-24 14:51:00,83.4,67.6,30.13,SE,142,0.0,1.0,59,0.00,,---,0.01,VWS V14.00,2013-08-24 18:51:00,
2013-08-24 14:56:00,83.7,66.9,30.14,SE,142,0.0,1.0,57,0.00,,---,0.01,VWS V14.00,2013-08-24 18:56:00,
2013-08-24 15:01:00,84.0,68.1,30.13,SE,142,0.0,1.0,59,0.00,,---,0.01,VWS V14.00,2013-08-24 19:01:00,
2013-08-24 15:06:00,84.2,70.2,30.13,SE,142,0.0,1.0,63,0.00,,---,0.01,VWS V14.00,2013-08-24 19:06:00,
2013-08-24 15:11:00,84.4,70.9,30.13,South,175,0.0,2.0,64,0.00,,---,0.01,VWS V14.00,2013-08-24 19:11:00,
2013-08-24 15:16:00,84.5,71.0,30.12,South,175,0.0,2.0,64,0.00,,---,0.01,VWS V14.00,2013-08-24 19:16:00,
2013-08-24 15:21:00,84.3,68.9,30.13,South,175,0.0,2.0,60,0.00,,---,0.01,VWS V14.00,2013-08-24 19:21:00,
2013-08-24 15:26:00,83.6,69.7,30.12,South,176,0.0,2.0,63,0.00,,---,0.01,VWS V14.00,2013-08-24 19:26:00,
2013-08-24 15:31:00,82.2,68.8,30.13,SW,220,0.0,2.0,64,0.00,,---,0.01,VWS V14.00,2013-08-24 19:31:00,
2013-08-24 15:36:00,81.3,68.4,30.13,SW,219,0.0,2.0,65,0.00,,---,0.01,VWS V14.00,2013-08-24 19:36:00,
2013-08-24 15:41:00,80.9,68.0,30.13,SW,219,0.0,1.0,65,0.00,,---,0.01,VWS V14.00,2013-08-24 19:41:00,
2013-08-24 15:46:00,81.0,68.1,30.13,SW,219,1.0,1.0,65,0.00,,---,0.01,VWS V14.00,2013-08-24 19:46:00,
2013-08-24 15:51:00,81.4,70.3,30.12,SE,144,0.0,2.0,69,0.00,,---,0.01,VWS V14.00,2013-08-24 19:51:00,
2013-08-24 15:56:00,81.7,67.9,30.12,South,176,0.0,2.0,63,0.00,,---,0.01,VWS V14.00,2013-08-24 19:56:00,
2013-08-24 16:01:00,82.0,69.5,30.12,SE,134,0.0,3.0,66,0.00,,---,0.01,VWS V14.00,2013-08-24 20:01:00,
2013-08-24 16:06:00,82.2,68.4,30.12,SE,141,0.0,4.0,63,0.00,,---,0.01,VWS V14.00,2013-08-24 20:06:00,
2013-08-24 16:10:00,82.1,68.7,30.12,SE,139,0.0,1.0,64,0.00,,---,0.01,VWS V14.00,2013-08-24 20:10:00,
2013-08-24 16:15:00,81.6,67.3,30.12,SE,138,0.0,1.0,62,0.00,,---,0.01,VWS V14.00,2013-08-24 20:15:00,
2013-08-24 16:20:00,81.6,69.6,30.12,SE,139,0.0,1.0,67,0.00,,---,0.01,VWS V14.00,2013-08-24 20:20:00,
2013-08-24 16:25:00,81.6,67.8,30.12,SE,139,1.0,2.0,63,0.00,,---,0.01,VWS V14.00,2013-08-24 20:25:00,
2013-08-24 16:30:00,81.5,67.7,30.12,SE,129,0.0,2.0,63,0.00,,---,0.01,VWS V14.00,2013-08-24 20:30:00,
2013-08-24 16:35:00,81.8,71.1,30.12,SE,129,0.0,2.0,70,0.00,,---,0.01,VWS V14.00,2013-08-24 20:35:00,
2013-08-24 16:40:00,81.9,70.3,30.12,SE,129,0.0,0.0,68,0.00,,---,0.01,VWS V14.00,2013-08-24 20:40:00,
2013-08-24 16:45:00,81.9,69.0,30.12,SE,141,0.0,2.0,65,0.00,,---,0.01,VWS V14.00,2013-08-24 20:45:00,
2013-08-24 16:50:00,82.2,71.4,30.12,SE,141,0.0,2.0,70,0.00,,---,0.01,VWS V14.00,2013-08-24 20:50:00,
2013-08-24 16:55:00,82.2,69.3,30.12,SE,140,0.0,2.0,65,0.00,,---,0.01,VWS V14.00,2013-08-24 20:55:00,
2013-08-24 17:00:00,82.5,67.2,30.12,West,273,0.0,2.0,60,0.00,,---,0.01,VWS V14.00,2013-08-24 21:00:00,
2013-08-24 17:05:00,82.9,67.6,30.12,NW,317,0.0,4.0,60,0.00,,---,0.01,VWS V14.00,2013-08-24 21:05:00,
2013-08-24 17:10:00,83.2,66.4,30.11,NE,46,1.0,1.0,57,0.00,,---,0.01,VWS V14.00,2013-08-24 21:10:00,
2013-08-24 17:15:00,83.0,69.1,30.11,NE,50,0.0,1.0,63,0.00,,---,0.01,VWS V14.00,2013-08-24 21:15:00,
2013-08-24 17:20:00,83.0,68.7,30.11,NE,49,0.0,1.0,62,0.00,,---,0.01,VWS V14.00,2013-08-24 21:20:00,
2013-08-24 17:25:00,83.1,67.8,30.11,NE,49,0.0,1.0,60,0.00,,---,0.01,VWS V14.00,2013-08-24 21:25:00,
2013-08-24 17:30:00,82.9,69.0,30.11,SE,125,0.0,2.0,63,0.00,,---,0.01,VWS V14.00,2013-08-24 21:30:00,
2013-08-24 17:35:00,82.9,69.9,30.11,SE,125,0.0,2.0,65,0.00,,---,0.01,VWS V14.00,2013-08-24 21:35:00,
2013-08-24 17:40:00,82.7,70.2,30.11,WNW,292,0.0,0.0,66,0.00,,---,0.01,VWS V14.00,2013-08-24 21:40:00,
2013-08-24 17:45:00,82.5,70.9,30.11,WNW,292,0.0,1.0,68,0.00,,---,0.01,VWS V14.00,2013-08-24 21:45:00,
2013-08-24 17:50:00,82.3,70.7,30.11,WNW,292,0.0,1.0,68,0.00,,---,0.01,VWS V14.00,2013-08-24 21:50:00,
2013-08-24 17:55:00,81.8,69.3,30.11,SW,236,0.0,4.0,66,0.00,,---,0.01,VWS V14.00,2013-08-24 21:55:00,
2013-08-24 18:00:00,81.5,69.9,30.11,WSW,238,3.0,4.0,68,0.00,,---,0.01,VWS V14.00,2013-08-24 22:00:00,
2013-08-24 18:05:00,80.9,68.9,30.11,WNW,298,3.0,4.0,67,0.00,,---,0.01,VWS V14.00,2013-08-24 22:05:00,
2013-08-24 18:10:00,80.5,69.4,30.12,WNW,298,0.0,0.0,69,0.00,,---,0.01,VWS V14.00,2013-08-24 22:10:00,
2013-08-24 18:15:00,79.9,69.7,30.13,West,263,0.0,3.0,71,0.00,,---,0.01,VWS V14.00,2013-08-24 22:15:00,
2013-08-24 18:20:00,79.4,69.6,30.13,West,263,0.0,3.0,72,0.00,,---,0.01,VWS V14.00,2013-08-24 22:20:00,
2013-08-24 18:25:00,78.8,68.6,30.13,WSW,248,0.0,5.0,71,0.00,,---,0.01,VWS V14.00,2013-08-24 22:25:00,
2013-08-24 18:30:00,78.4,69.0,30.13,NW,312,0.0,5.0,73,0.00,,---,0.01,VWS V14.00,2013-08-24 22:30:00,
2013-08-24 18:35:00,77.9,68.9,30.13,NW,311,0.0,5.0,74,0.00,,---,0.01,VWS V14.00,2013-08-24 22:35:00,
2013-08-24 18:40:00,77.5,69.0,30.13,West,268,2.0,3.0,75,0.00,,---,0.01,VWS V14.00,2013-08-24 22:40:00,
2013-08-24 18:45:00,77.1,69.0,30.13,West,268,0.0,3.0,76,0.00,,---,0.01,VWS V14.00,2013-08-24 22:45:00,
2013-08-24 18:50:00,76.7,68.2,30.14,NW,311,0.0,6.0,75,0.00,,---,0.01,VWS V14.00,2013-08-24 22:50:00,
2013-08-24 18:55:00,76.4,68.3,30.14,NW,311,0.0,6.0,76,0.00,,---,0.01,VWS V14.00,2013-08-24 22:55:00,
2013-08-24 19:00:00,76.0,67.5,30.15,West,271,0.0,6.0,75,0.00,,---,0.01,VWS V14.00,2013-08-24 23:00:00,
2013-08-24 19:05:00,75.6,67.1,30.14,West,273,0.0,6.0,75,0.00,,---,0.01,VWS V14.00,2013-08-24 23:05:00,
2013-08-24 19:10:00,75.4,68.1,30.15,West,272,0.0,2.0,78,0.00,,---,0.01,VWS V14.00,2013-08-24 23:10:00,
2013-08-24 19:15:00,75.1,67.8,30.15,West,272,0.0,2.0,78,0.00,,---,0.01,VWS V14.00,2013-08-24 23:15:00,
2013-08-24 19:20:00,74.8,67.1,30.15,West,279,2.0,4.0,77,0.00,,---,0.01,VWS V14.00,2013-08-24 23:20:00,
2013-08-24 19:25:00,74.4,67.1,30.16,West,281,3.0,5.0,78,0.00,,---,0.01,VWS V14.00,2013-08-24 23:25:00,
2013-08-24 19:30:00,74.0,66.3,30.16,West,280,2.0,5.0,77,0.00,,---,0.01,VWS V14.00,2013-08-24 23:30:00,
2013-08-24 19:35:00,73.7,66.4,30.16,West,281,0.0,5.0,78,0.00,,---,0.01,VWS V14.00,2013-08-24 23:35:00,
2013-08-24 19:40:00,73.4,66.1,30.17,West,277,1.0,1.0,78,0.00,,---,0.01,VWS V14.00,2013-08-24 23:40:00,
2013-08-24 19:45:00,73.1,65.5,30.17,WNW,299,4.0,7.0,77,0.00,,---,0.01,VWS V14.00,2013-08-24 23:45:00,
2013-08-24 19:50:00,72.7,65.4,30.16,West,275,3.0,7.0,78,0.00,,---,0.01,VWS V14.00,2013-08-24 23:50:00,
2013-08-24 19:55:00,72.5,64.5,30.16,NW,311,0.0,7.0,76,0.00,,---,0.01,VWS V14.00,2013-08-24 23:55:00,
2013-08-24 20:00:00,72.3,64.7,30.17,West,279,0.0,7.0,77,0.00,,---,0.01,VWS V14.00,2013-08-25 00:00:00,
2013-08-24 20:05:00,72.1,65.2,30.17,WSW,256,0.0,7.0,79,0.00,,---,0.01,VWS V14.00,2013-08-25 00:05:00,
2013-08-24 20:10:00,72.0,64.8,30.17,NW,309,0.0,1.0,78,0.00,,---,0.01,VWS V14.00,2013-08-25 00:10:00,
2013-08-24 20:15:00,71.8,64.6,30.18,WSW,244,0.0,2.0,78,0.00,,---,0.01,VWS V14.00,2013-08-25 00:15:00,
2013-08-24 20:20:00,71.5,63.9,30.18,WSW,245,0.0,2.0,77,0.00,,---,0.01,VWS V14.00,2013-08-25 00:20:00,
2013-08-24 20:25:00,71.4,64.2,30.18,West,279,0.0,3.0,78,0.00,,---,0.01,VWS V14.00,2013-08-25 00:25:00,
2013-08-24 20:30:00,71.3,64.5,30.19,West,275,0.0,3.0,79,0.00,,---,0.01,VWS V14.00,2013-08-25 00:30:00,
2013-08-24 20:35:00,71.2,64.4,30.18,West,268,0.0,3.0,79,0.00,,---,0.01,VWS V14.00,2013-08-25 00:35:00,
2013-08-24 20:40:00,71.2,64.7,30.18,West,269,0.0,0.0,80,0.00,,---,0.01,VWS V14.00,2013-08-25 00:40:00,
2013-08-24 20:45:00,71.0,64.2,30.18,West,272,0.0,3.0,79,0.00,,---,0.01,VWS V14.00,2013-08-25 00:45:00,
2013-08-24 20:50:00,70.8,64.3,30.19,West,272,0.0,3.0,80,0.00,,---,0.01,VWS V14.00,2013-08-25 00:50:00,
2013-08-24 20:55:00,70.7,64.2,30.19,West,273,0.0,3.0,80,0.00,,---,0.01,VWS V14.00,2013-08-25 00:55:00,
2013-08-24 21:00:00,70.5,64.0,30.19,WNW,303,0.0,4.0,80,0.00,,---,0.01,VWS V14.00,2013-08-25 01:00:00,
2013-08-24 21:05:00,70.4,63.9,30.20,WNW,303,0.0,4.0,80,0.00,,---,0.01,VWS V14.00,2013-08-25 01:05:00,
2013-08-24 21:10:00,70.4,64.3,30.20,WNW,303,0.0,0.0,81,0.00,,---,0.01,VWS V14.00,2013-08-25 01:10:00,
2013-08-24 21:15:00,70.3,64.6,30.20,WNW,303,0.0,0.0,82,0.00,,---,0.01,VWS V14.00,2013-08-25 01:15:00,
2013-08-24 21:20:00,70.1,64.0,30.21,WNW,303,0.0,1.0,81,0.00,,---,0.01,VWS V14.00,2013-08-25 01:20:00,
2013-08-24 21:25:00,70.1,64.4,30.21,WNW,303,0.0,1.0,82,0.00,,---,0.01,VWS V14.00,2013-08-25 01:25:00,
2013-08-24 21:30:00,69.9,64.2,30.21,WNW,303,0.0,1.0,82,0.00,,---,0.01,VWS V14.00,2013-08-25 01:30:00,
2013-08-24 21:35:00,69.8,64.1,30.22,WNW,303,0.0,1.0,82,0.00,,---,0.01,VWS V14.00,2013-08-25 01:35:00,
2013-08-24 21:40:00,69.7,64.3,30.22,WNW,303,0.0,0.0,83,0.00,,---,0.01,VWS V14.00,2013-08-25 01:40:00,
2013-08-24 21:45:00,69.6,63.9,30.22,WNW,303,0.0,0.0,82,0.00,,---,0.01,VWS V14.00,2013-08-25 01:45:00,
2013-08-24 21:50:00,69.5,64.1,30.22,WNW,303,0.0,0.0,83,0.00,,---,0.01,VWS V14.00,2013-08-25 01:50:00,
2013-08-24 21:55:00,69.4,63.7,30.22,WNW,303,0.0,0.0,82,0.00,,---,0.01,VWS V14.00,2013-08-25 01:55:00,
2013-08-24 22:00:00,69.3,63.2,30.23,WNW,303,0.0,1.0,81,0.00,,---,0.01,VWS V14.00,2013-08-25 02:00:00,
2013-08-24 22:05:00,69.1,63.0,30.23,WNW,303,0.0,1.0,81,0.00,,---,0.01,VWS V14.00,2013-08-25 02:05:00,
2013-08-24 22:10:00,68.9,62.8,30.22,WNW,303,0.0,1.0,81,0.00,,---,0.01,VWS V14.00,2013-08-25 02:10:00,
2013-08-24 22:15:00,68.6,62.5,30.22,WNW,303,0.0,2.0,81,0.00,,---,0.01,VWS V14.00,2013-08-25 02:15:00,
2013-08-24 22:20:00,68.5,62.1,30.22,WNW,303,0.0,4.0,80,0.00,,---,0.01,VWS V14.00,2013-08-25 02:20:00,
2013-08-24 22:25:00,68.4,62.0,30.22,WNW,302,0.0,4.0,80,0.00,,---,0.01,VWS V14.00,2013-08-25 02:25:00,
2013-08-24 22:30:00,68.4,62.3,30.23,WNW,282,0.0,4.0,81,0.00,,---,0.01,VWS V14.00,2013-08-25 02:30:00,
2013-08-24 22:35:00,68.4,62.3,30.23,West,281,1.0,4.0,81,0.00,,---,0.01,VWS V14.00,2013-08-25 02:35:00,
2013-08-24 22:40:00,68.3,62.2,30.23,West,281,0.0,0.0,81,0.00,,---,0.01,VWS V14.00,2013-08-25 02:40:00,
2013-08-24 22:45:00,68.3,62.2,30.24,WNW,282,0.0,1.0,81,0.00,,---,0.01,VWS V14.00,2013-08-25 02:45:00,
2013-08-24 22:50:00,68.3,62.6,30.24,WNW,282,0.0,1.0,82,0.00,,---,0.01,VWS V14.00,2013-08-25 02:50:00,
2013-08-24 22:55:00,68.2,62.8,30.24,WNW,282,0.0,1.0,83,0.00,,---,0.01,VWS V14.00,2013-08-25 02:55:00,
2013-08-24 23:00:00,68.1,62.8,30.24,West,281,0.0,1.0,83,0.00,,---,0.01,VWS V14.00,2013-08-25 03:00:00,
2013-08-24 23:05:00,68.0,62.3,30.24,WNW,282,0.0,1.0,82,0.00,,---,0.01,VWS V14.00,2013-08-25 03:05:00,
2013-08-24 23:10:00,68.0,62.3,30.22,WNW,282,0.0,0.0,82,0.00,,---,0.01,VWS V14.00,2013-08-25 03:10:00,
2013-08-24 23:15:00,67.9,62.2,30.22,WNW,282,0.0,0.0,82,0.00,,---,0.01,VWS V14.00,2013-08-25 03:15:00,
2013-08-24 23:20:00,67.8,62.1,30.22,WNW,287,0.0,2.0,82,0.00,,---,0.01,VWS V14.00,2013-08-25 03:20:00,
2013-08-24 23:25:00,67.7,62.0,30.22,WNW,287,0.0,2.0,82,0.00,,---,0.01,VWS V14.00,2013-08-25 03:25:00,
2013-08-24 23:30:00,67.6,62.3,30.23,WNW,287,0.0,2.0,83,0.00,,---,0.01,VWS V14.00,2013-08-25 03:30:00,
2013-08-24 23:35:00,67.4,62.1,30.23,WNW,287,0.0,2.0,83,0.00,,---,0.01,VWS V14.00,2013-08-25 03:35:00,
2013-08-24 23:40:00,67.2,61.9,30.23,WNW,287,0.0,1.0,83,0.00,,---,0.01,VWS V14.00,2013-08-25 03:40:00,
2013-08-24 23:45:00,67.0,61.7,30.23,WNW,287,0.0,1.0,83,0.00,,---,0.01,VWS V14.00,2013-08-25 03:45:00,
2013-08-24 23:50:00,66.8,61.8,30.23,WNW,287,0.0,1.0,84,0.00,,---,0.01,VWS V14.00,2013-08-25 03:50:00,
2013-08-24 23:55:00,66.6,61.6,30.24,WNW,288,0.0,2.0,84,0.00,,---,0.01,VWS V14.00,2013-08-25 03:55:00,